Time;durP1;ratioP1;P1;durP2;ratioP2;P2;SDS_P1;SDS_P2;PMS_P1;PMS_P2;Temp;Humidity;BMP_temperature;BMP_pressure;BME280_temperature;BME280_humidity;BME280_pressure;Samples;Min_cycle;Max_cycle;Signal;HPM_P1;HPM_P2
2023/04/27 00:01:48;;;;;;;6.95;3.03;;;;;;;3.38;90.41;101916.22;5096479;28;20039;-82
2023/04/27 00:04:13;;;;;;;8.73;3.28;;;;;;;3.34;91.42;101912.97;5079557;28;20043;-83
2023/04/27 00:06:39;;;;;;;5.27;2.93;;;;;;;3.32;91.77;101911.41;5096307;28;20032;-83
2023/04/27 00:09:04;;;;;;;5.53;3.00;;;;;;;3.30;91.38;101919.59;5096443;28;20019;-83
2023/04/27 00:11:32;;;;;;;9.05;3.40;;;;;;;3.30;91.40;101908.84;5079817;28;20516;-82
2023/04/27 00:13:58;;;;;;;7.90;3.28;;;;;;;3.27;91.99;101914.50;5114451;28;20053;-83
2023/04/27 00:16:23;;;;;;;4.73;3.30;;;;;;;3.27;92.42;101913.69;5096092;28;20027;-83
2023/04/27 00:18:49;;;;;;;7.37;3.20;;;;;;;3.20;92.61;101905.34;5080042;28;20031;-83
2023/04/27 00:21:14;;;;;;;8.40;3.10;;;;;;;3.19;92.25;101917.06;5096121;28;20027;-82
2023/04/27 00:23:40;;;;;;;4.40;2.90;;;;;;;3.13;92.56;101910.44;5079449;28;20038;-83
2023/04/27 00:26:05;;;;;;;7.40;3.35;;;;;;;3.09;92.68;101921.59;5079060;28;20322;-83
2023/04/27 00:28:30;;;;;;;8.40;3.80;;;;;;;3.08;92.56;101918.03;5096252;28;20043;-83
2023/04/27 00:30:56;;;;;;;7.33;3.00;;;;;;;3.08;93.65;101917.19;5096175;28;20035;-83
2023/04/27 00:33:24;;;;;;;6.13;3.27;;;;;;;3.06;93.78;101917.34;5078978;28;20043;-83
2023/04/27 00:35:49;;;;;;;9.80;3.58;;;;;;;3.04;94.52;101921.13;5062729;28;20080;-83
2023/04/27 00:38:15;;;;;;;9.67;3.27;;;;;;;3.01;94.76;101918.72;5095982;28;20032;-83
2023/04/27 00:40:40;;;;;;;6.25;3.65;;;;;;;3.00;95.26;101915.22;5078936;28;20036;-83
2023/04/27 00:43:06;;;;;;;8.00;3.37;;;;;;;2.96;95.84;101905.75;5079269;28;20028;-83
2023/04/27 00:45:31;;;;;;;6.40;3.63;;;;;;;2.95;95.83;101912.09;5099448;28;20642;-83
2023/04/27 00:47:58;;;;;;;8.73;3.43;;;;;;;2.91;96.19;101916.03;5100627;28;20038;-83
2023/04/27 00:50:28;;;;;;;8.43;3.22;;;;;;;2.86;97.37;101910.25;5083312;28;20024;-83
2023/04/27 00:52:55;;;;;;;5.60;3.15;;;;;;;2.82;97.89;101912.38;5100498;28;20114;-83
2023/04/27 00:55:21;;;;;;;7.78;3.55;;;;;;;2.78;98.36;101913.63;5118214;28;20102;-82
2023/04/27 00:57:47;;;;;;;9.63;3.60;;;;;;;2.71;97.74;101918.69;5099638;28;20046;-83
2023/04/27 01:00:13;;;;;;;7.75;3.22;;;;;;;2.69;97.40;101925.16;5100647;28;20028;-83
2023/04/27 01:02:39;;;;;;;10.47;3.50;;;;;;;2.65;97.31;101916.56;5099697;28;20036;-83
2023/04/27 01:05:06;;;;;;;9.27;3.72;;;;;;;2.64;97.82;101914.84;5099902;28;20069;-83
2023/04/27 01:07:31;;;;;;;7.35;3.28;;;;;;;2.61;98.40;101916.00;5099607;28;20125;-83
2023/04/27 01:09:57;;;;;;;8.63;3.80;;;;;;;2.58;98.65;101908.22;5083075;28;20032;-83
2023/04/27 01:12:22;;;;;;;10.07;3.70;;;;;;;2.58;99.60;101916.28;5117819;28;20375;-82
2023/04/27 01:14:47;;;;;;;7.03;3.60;;;;;;;2.56;100.00;101912.84;5082272;28;20051;-83
2023/04/27 01:17:13;;;;;;;14.32;3.92;;;;;;;2.51;100.00;101909.75;5099272;28;20111;-83
2023/04/27 01:19:39;;;;;;;7.93;3.50;;;;;;;2.48;100.00;101920.75;5065520;28;20027;-83
2023/04/27 01:22:05;;;;;;;10.20;3.83;;;;;;;2.43;100.00;101918.44;5099815;28;20043;-83
2023/04/27 01:24:31;;;;;;;9.27;4.07;;;;;;;2.39;100.00;101919.72;5083115;28;20378;-83
2023/04/27 01:26:57;;;;;;;8.10;3.73;;;;;;;2.34;99.72;101926.47;5082484;28;20027;-83
2023/04/27 01:29:22;;;;;;;10.07;3.60;;;;;;;2.31;99.72;101929.41;5082363;28;20035;-83
2023/04/27 01:31:48;;;;;;;6.20;3.40;;;;;;;2.27;99.31;101927.00;5082147;28;20150;-83
2023/04/27 01:34:13;;;;;;;8.47;3.90;;;;;;;2.26;99.29;101922.63;5099303;28;20024;-83
2023/04/27 01:36:39;;;;;;;8.70;4.10;;;;;;;2.27;99.69;101924.34;5082773;28;20288;-83
2023/04/27 01:39:08;;;;;;;6.70;3.97;;;;;;;2.25;100.00;101922.75;5098897;28;20506;-83
2023/04/27 01:41:36;;;;;;;10.10;3.92;;;;;;;2.24;100.00;101918.38;5117543;28;20573;-83
2023/04/27 01:44:01;;;;;;;6.72;3.85;;;;;;;2.24;100.00;101918.38;5117324;28;20059;-83
2023/04/27 01:46:26;;;;;;;8.47;3.60;;;;;;;2.21;100.00;101914.13;5117196;28;20120;-83
2023/04/27 01:48:52;;;;;;;7.23;3.73;;;;;;;2.20;100.00;101911.59;5082550;28;20085;-83
2023/04/27 01:51:17;;;;;;;12.40;4.73;;;;;;;2.18;100.00;101914.41;5098623;28;20040;-83
2023/04/27 01:53:42;;;;;;;9.23;3.90;;;;;;;2.18;100.00;101916.25;5098460;28;20020;-83
2023/04/27 01:56:09;;;;;;;7.53;3.40;;;;;;;2.15;100.00;101913.84;5099285;28;20028;-83
2023/04/27 01:58:34;;;;;;;10.00;3.67;;;;;;;2.12;100.00;101906.06;5082052;28;20423;-83
2023/04/27 02:01:00;;;;;;;8.73;3.77;;;;;;;2.07;100.00;101904.66;5098923;28;20036;-83
2023/04/27 02:03:25;;;;;;;8.70;3.77;;;;;;;2.05;100.00;101911.97;5081458;28;20031;-83
2023/04/27 02:05:51;;;;;;;8.37;3.90;;;;;;;2.03;100.00;101911.25;5081729;28;20047;-83
2023/04/27 02:08:16;;;;;;;9.50;3.70;;;;;;;2.03;100.00;101902.38;5098637;28;20471;-83
2023/04/27 02:10:41;;;;;;;13.97;4.00;;;;;;;2.00;100.00;101902.63;5082188;28;20122;-83
2023/04/27 02:13:08;;;;;;;10.43;3.93;;;;;;;1.97;100.00;101900.22;5097997;28;20058;-82
2023/04/27 02:15:36;;;;;;;7.20;3.83;;;;;;;1.92;100.00;101906.81;5098576;28;20409;-83
2023/04/27 02:18:03;;;;;;;12.73;4.35;;;;;;;1.91;100.00;101899.75;5081132;28;20035;-83
2023/04/27 02:20:30;;;;;;;9.60;4.20;;;;;;;1.93;100.00;101902.31;5098291;28;20067;-83
2023/04/27 02:22:55;;;;;;;9.75;3.97;;;;;;;1.92;100.00;101904.16;5081493;28;20024;-83
2023/04/27 02:25:21;;;;;;;10.02;4.20;;;;;;;1.91;100.00;101899.75;5081090;28;20536;-83
2023/04/27 02:27:47;;;;;;;8.80;4.03;;;;;;;1.91;100.00;101891.72;5097838;28;20028;-83
2023/04/27 02:30:12;;;;;;;8.07;3.80;;;;;;;1.90;100.00;101881.16;5082029;28;20032;-83
2023/04/27 02:32:38;;;;;;;11.63;4.30;;;;;;;1.91;100.00;101890.91;5097665;28;20657;-83
2023/04/27 02:35:04;;;;;;;7.00;4.50;;;;;;;1.89;100.00;101888.34;5081212;28;20085;-83
2023/04/27 02:37:29;;;;;;;9.00;3.90;;;;;;;1.89;100.00;101885.69;5116426;28;20023;-83
2023/04/27 02:39:55;;;;;;;8.73;4.25;;;;;;;1.88;100.00;101883.97;5081392;28;20417;-83
2023/04/27 02:42:23;;;;;;;11.90;4.43;;;;;;;1.87;100.00;101881.44;5116367;28;20039;-83
2023/04/27 02:44:48;;;;;;;13.20;4.63;;;;;;;1.84;100.00;101890.56;5097890;28;20384;-83
2023/04/27 02:47:14;;;;;;;9.27;4.10;;;;;;;1.80;100.00;101886.47;5097802;28;20115;-82
2023/04/27 02:49:39;;;;;;;10.20;4.77;;;;;;;1.80;100.00;101890.97;5097727;28;20035;-83
2023/04/27 02:52:05;;;;;;;9.10;4.15;;;;;;;1.78;100.00;101895.63;5098278;28;20057;-83
2023/04/27 02:54:31;;;;;;;11.63;4.37;;;;;;;1.72;100.00;101900.50;5115847;28;20027;-83
2023/04/27 02:56:56;;;;;;;10.55;4.30;;;;;;;1.69;100.00;101899.94;5097499;28;20360;-84
2023/04/27 02:59:22;;;;;;;10.07;4.40;;;;;;;1.69;100.00;101894.56;5097412;28;20461;-83
2023/04/27 03:01:47;;;;;;;10.93;4.93;;;;;;;1.68;100.00;101885.72;5097403;28;20032;-83
2023/04/27 03:04:13;;;;;;;9.68;4.63;;;;;;;1.67;100.00;101889.34;5097074;28;20036;-83
2023/04/27 03:06:40;;;;;;;10.80;4.57;;;;;;;1.64;100.00;101884.28;5115068;28;20031;-83
2023/04/27 03:09:06;;;;;;;9.95;4.47;;;;;;;1.61;100.00;101887.22;5097333;28;20031;-83
2023/04/27 03:11:31;;;;;;;8.98;4.55;;;;;;;1.57;100.00;101883.09;5115280;28;20027;-83
2023/04/27 03:13:57;;;;;;;10.23;4.63;;;;;;;1.54;100.00;101880.69;5080301;28;20139;-83
2023/04/27 03:16:22;;;;;;;9.73;4.20;;;;;;;1.54;100.00;101886.03;5080592;28;20044;-83
2023/04/27 03:18:47;;;;;;;8.63;5.03;;;;;;;1.56;100.00;101894.75;5097144;28;20023;-83
2023/04/27 03:21:15;;;;;;;11.07;4.80;;;;;;;1.56;100.00;101895.59;5080783;28;20034;-83
2023/04/27 03:23:41;;;;;;;13.00;4.57;;;;;;;1.56;100.00;101894.75;5097248;28;20020;-83
2023/04/27 03:26:11;;;;;;;8.13;4.53;;;;;;;1.55;100.00;101899.28;5096946;28;20482;-83
2023/04/27 03:28:39;;;;;;;13.52;4.80;;;;;;;1.54;100.00;101894.91;5114909;28;20487;-83
2023/04/27 03:31:09;;;;;;;10.90;4.50;;;;;;;1.53;100.00;101892.34;5115445;28;20035;-83
2023/04/27 03:33:35;;;;;;;14.60;5.20;;;;;;;1.53;100.00;101895.03;5096471;28;20027;-83
2023/04/27 03:36:01;;;;;;;8.27;4.47;;;;;;;1.49;100.00;101902.47;5096693;28;20028;-83
2023/04/27 03:38:27;;;;;;;10.82;5.10;;;;;;;1.47;100.00;101903.56;5096769;28;20112;-83
2023/04/27 03:40:53;;;;;;;11.67;4.90;;;;;;;1.44;100.00;101909.19;5114700;28;20040;-83
2023/04/27 03:43:19;;;;;;;9.65;4.70;;;;;;;1.39;100.00;101910.41;5096833;28;20036;-83
2023/04/27 03:45:45;;;;;;;10.48;4.75;;;;;;;1.37;100.00;101904.38;5079878;28;20429;-83
2023/04/27 03:48:11;;;;;;;9.03;5.13;;;;;;;1.37;100.00;101917.75;5096330;28;20027;-83
2023/04/27 03:50:36;;;;;;;11.30;5.10;;;;;;;1.34;100.00;101911.78;5114538;28;20035;-83
2023/04/27 03:53:02;;;;;;;12.67;5.23;;;;;;;1.29;100.00;101914.84;5079562;28;20063;-83
2023/04/27 03:55:27;;;;;;;12.05;5.07;;;;;;;1.26;100.00;101914.25;5096632;28;20031;-83
2023/04/27 03:57:53;;;;;;;13.27;5.13;;;;;;;1.26;100.00;101909.75;5080157;28;20035;-83
2023/04/27 04:00:18;;;;;;;12.93;5.33;;;;;;;1.22;100.00;101914.50;5079543;28;20122;-83
2023/04/27 04:02:44;;;;;;;10.97;4.83;;;;;;;1.19;100.00;101917.41;5096520;28;20035;-83
2023/04/27 04:05:11;;;;;;;9.32;5.00;;;;;;;1.18;100.00;101915.75;5096210;28;20049;-83
2023/04/27 04:07:36;;;;;;;10.35;4.57;;;;;;;1.16;100.00;101911.50;5063677;28;20028;-83
2023/04/27 04:10:02;;;;;;;10.40;5.13;;;;;;;1.12;100.00;101908.25;5096167;28;20088;-83
2023/04/27 04:12:30;;;;;;;9.55;4.82;;;;;;;1.12;100.00;101912.72;5114728;28;20080;-83
2023/04/27 04:14:55;;;;;;;10.15;5.03;;;;;;;1.11;100.00;101906.53;5096498;28;20047;-83
2023/04/27 04:17:21;;;;;;;10.83;4.93;;;;;;;1.09;100.00;101903.13;5062558;28;20036;-83
2023/04/27 04:19:46;;;;;;;16.70;5.20;;;;;;;1.09;100.00;101921.00;5095303;28;20043;-83
2023/04/27 04:22:12;;;;;;;13.33;5.70;;;;;;;1.08;100.00;101920.16;5079296;28;20035;-83
2023/04/27 04:24:38;;;;;;;13.03;5.73;;;;;;;1.05;100.00;101918.59;5096389;28;20451;-83
2023/04/27 04:27:04;;;;;;;12.75;5.68;;;;;;;1.05;100.00;101915.91;5079780;28;20529;-83
2023/04/27 04:29:29;;;;;;;12.33;5.43;;;;;;;1.10;100.00;101926.22;5096742;28;20106;-83
2023/04/27 04:31:55;;;;;;;9.88;6.03;;;;;;;1.13;100.00;101928.63;5114554;28;20273;-83
2023/04/27 04:34:21;;;;;;;13.37;5.67;;;;;;;1.18;100.00;101912.22;5079118;28;20028;-83
2023/04/27 04:36:50;;;;;;;9.05;4.97;;;;;;;1.19;100.00;101922.78;5062687;28;20120;-83
2023/04/27 04:39:21;;;;;;;13.07;5.10;;;;;;;1.21;100.00;101931.53;5095787;28;20038;-83
2023/04/27 04:41:50;;;;;;;10.32;5.32;;;;;;;1.27;100.00;101940.00;5096851;28;20055;-83
2023/04/27 04:44:15;;;;;;;11.60;5.40;;;;;;;1.29;100.00;101935.41;5114027;28;20024;-83
2023/04/27 04:46:41;;;;;;;14.17;5.77;;;;;;;1.34;100.00;101951.88;5079281;28;20474;-83
2023/04/27 04:49:07;;;;;;;10.40;4.70;;;;;;;1.36;100.00;101948.13;5078699;28;20034;-83
2023/04/27 04:51:33;;;;;;;11.87;5.67;;;;;;;1.39;100.00;101944.34;5096001;28;20124;-82
2023/04/27 04:53:58;;;;;;;11.18;5.20;;;;;;;1.39;100.00;101939.84;5095337;28;20134;-82
2023/04/27 04:56:24;;;;;;;8.93;5.00;;;;;;;1.42;100.00;101940.53;5095826;28;20071;-82
2023/04/27 04:58:50;;;;;;;13.93;5.05;;;;;;;1.44;100.00;101943.97;5095734;28;20053;-82
2023/04/27 05:01:18;;;;;;;11.10;5.10;;;;;;;1.47;100.00;101943.69;5079143;28;20367;-82
2023/04/27 05:03:43;;;;;;;15.57;5.68;;;;;;;1.49;100.00;101949.75;5078674;28;20036;-82
2023/04/27 05:06:09;;;;;;;12.67;5.03;;;;;;;1.51;100.00;101951.34;5062166;28;20035;-82
2023/04/27 05:08:34;;;;;;;12.87;5.63;;;;;;;1.55;100.00;101949.22;5078449;28;20039;-82
2023/04/27 05:11:00;;;;;;;11.25;4.78;;;;;;;1.60;100.00;101946.19;5078884;28;20521;-82
2023/04/27 05:13:25;;;;;;;9.23;4.28;;;;;;;1.67;100.00;101948.22;5078526;28;20055;-82
2023/04/27 05:15:51;;;;;;;8.57;5.17;;;;;;;1.74;100.00;101943.19;5095168;28;20118;-81
2023/04/27 05:18:17;;;;;;;17.17;5.88;;;;;;;1.81;100.00;101948.88;5095550;28;20024;-81
2023/04/27 05:20:43;;;;;;;12.80;5.18;;;;;;;1.85;100.00;101950.31;5079463;28;20036;-82
2023/04/27 05:23:08;;;;;;;12.32;5.00;;;;;;;1.89;100.00;101955.28;5095763;28;20031;-82
2023/04/27 05:25:40;;;;;;;12.33;5.73;;;;;;;1.97;100.00;101953.78;5095846;28;20455;-82
2023/04/27 05:28:09;;;;;;;18.35;5.80;;;;;;;2.03;100.00;101959.44;5079772;28;20031;-84
2023/04/27 05:30:35;;;;;;;12.30;5.03;;;;;;;2.09;100.00;101956.22;5081091;28;20027;-84
2023/04/27 05:33:04;;;;;;;11.82;5.18;;;;;;;2.13;100.00;101956.81;5117364;28;20062;-84
2023/04/27 05:35:30;;;;;;;15.70;5.87;;;;;;;2.17;100.00;101952.91;5098807;28;20476;-84
2023/04/27 05:37:56;;;;;;;10.50;4.93;;;;;;;2.22;100.00;101961.38;5082147;28;20070;-84
2023/04/27 05:40:21;;;;;;;11.13;5.45;;;;;;;2.29;100.00;101956.34;5082021;28;20061;-83
2023/04/27 05:42:47;;;;;;;17.20;5.93;;;;;;;2.36;100.00;101956.63;5082384;28;20036;-82
2023/04/27 05:45:13;;;;;;;12.43;5.95;;;;;;;2.45;100.00;101962.03;5117252;28;20028;-82
2023/04/27 05:47:38;;;;;;;13.77;6.30;;;;;;;2.54;100.00;101965.75;5082023;28;20403;-83
2023/04/27 05:50:05;;;;;;;13.70;6.10;;;;;;;2.63;100.00;101970.28;5082526;28;20066;-83
2023/04/27 05:52:30;;;;;;;13.32;6.18;;;;;;;2.73;100.00;101969.47;5082105;28;20304;-83
2023/04/27 05:54:57;;;;;;;9.65;5.60;;;;;;;2.81;100.00;101970.47;5081469;28;20392;-83
2023/04/27 05:57:23;;;;;;;9.83;5.80;;;;;;;2.89;100.00;101960.91;5117052;28;20085;-83
2023/04/27 05:59:49;;;;;;;12.57;5.55;;;;;;;3.00;100.00;101966.16;5082211;28;20087;-84
2023/04/27 06:02:15;;;;;;;10.98;5.32;;;;;;;3.10;100.00;101964.34;5098546;28;20518;-83
2023/04/27 06:04:40;;;;;;;12.83;5.27;;;;;;;3.21;100.00;101959.84;5098450;28;20035;-85
2023/04/27 06:07:13;;;;;;;10.40;4.75;;;;;;;3.32;100.00;101967.75;5098947;28;20023;-84
2023/04/27 06:09:40;;;;;;;10.73;4.50;;;;;;;3.38;100.00;101964.53;5117172;28;20062;-85
2023/04/27 06:12:06;;;;;;;12.63;5.10;;;;;;;3.48;99.94;101964.50;5098337;28;20464;-85
2023/04/27 06:14:33;;;;;;;7.80;4.00;;;;;;;3.54;98.77;101955.88;5098289;28;20055;-83
2023/04/27 06:16:59;;;;;;;10.55;4.80;;;;;;;3.66;98.08;101961.94;5099125;28;20432;-83
2023/04/27 06:19:25;;;;;;;9.97;4.73;;;;;;;3.73;97.75;101952.34;5116540;28;20038;-84
2023/04/27 06:21:52;;;;;;;9.80;4.80;;;;;;;3.86;97.99;101954.72;5081413;28;20024;-83
2023/04/27 06:24:17;;;;;;;12.32;5.00;;;;;;;3.98;97.23;101952.72;5098356;28;20063;-83
2023/04/27 06:26:43;;;;;;;12.20;5.00;;;;;;;4.07;96.39;101951.84;5080963;28;20043;-84
2023/04/27 06:29:08;;;;;;;9.43;4.40;;;;;;;4.18;96.41;101951.69;5116101;28;20032;-83
2023/04/27 06:31:33;;;;;;;12.10;4.65;;;;;;;4.28;94.99;101946.28;5080725;28;20046;-83
2023/04/27 06:34:00;;;;;;;9.10;4.30;;;;;;;4.42;93.95;101946.78;5097821;28;20063;-84
2023/04/27 06:36:26;;;;;;;7.72;4.28;;;;;;;4.54;92.98;101948.28;5081777;28;20092;-83
2023/04/27 06:38:55;;;;;;;9.43;4.50;;;;;;;4.66;92.03;101960.53;5098014;28;20074;-83
2023/04/27 06:41:23;;;;;;;7.57;4.40;;;;;;;4.78;92.30;101952.28;5081358;28;20034;-83
2023/04/27 06:43:49;;;;;;;13.80;4.80;;;;;;;4.89;91.04;101954.75;5097892;28;20027;-83
2023/04/27 06:46:14;;;;;;;10.80;4.40;;;;;;;5.02;90.49;101954.38;5097688;28;20118;-83
2023/04/27 06:48:40;;;;;;;10.65;4.47;;;;;;;5.13;89.12;101962.25;5081427;28;20359;-83
2023/04/27 06:51:06;;;;;;;14.07;4.97;;;;;;;5.22;88.99;101955.94;5080819;28;20035;-83
2023/04/27 06:53:31;;;;;;;13.57;4.93;;;;;;;5.33;88.20;101959.41;5080605;28;20391;-84
2023/04/27 06:55:57;;;;;;;9.87;4.77;;;;;;;5.42;88.81;101950.44;5097713;28;20028;-83
2023/04/27 06:58:22;;;;;;;10.57;5.33;;;;;;;5.52;88.57;101955.72;5097668;28;20412;-83
2023/04/27 07:00:47;;;;;;;12.87;5.03;;;;;;;5.61;87.21;101952.09;5080711;28;20038;-83
2023/04/27 07:03:13;;;;;;;11.75;5.38;;;;;;;5.70;86.60;101959.25;5080541;28;20027;-83
2023/04/27 07:05:39;;;;;;;14.33;5.40;;;;;;;5.76;85.75;101945.16;5080751;28;20029;-83
2023/04/27 07:08:05;;;;;;;11.40;5.30;;;;;;;5.86;84.49;101949.59;5097214;28;20035;-82
2023/04/27 07:10:30;;;;;;;14.53;6.63;;;;;;;5.92;84.86;101941.72;5097023;28;20028;-84
2023/04/27 07:12:56;;;;;;;12.55;5.32;;;;;;;6.00;84.58;101932.06;5080579;28;20044;-83
2023/04/27 07:15:22;;;;;;;13.73;5.40;;;;;;;6.09;84.23;101934.63;5097698;28;20031;-83
2023/04/27 07:17:47;;;;;;;10.50;5.28;;;;;;;6.15;83.34;101936.66;5097682;28;20036;-83
2023/04/27 07:20:13;;;;;;;11.93;5.07;;;;;;;6.24;83.63;101936.72;5063527;28;20115;-83
2023/04/27 07:22:39;;;;;;;12.07;5.60;;;;;;;6.35;82.77;101941.84;5080111;28;20036;-83
2023/04/27 07:25:05;;;;;;;13.30;5.60;;;;;;;6.49;82.35;101943.91;5096884;28;20027;-83
2023/04/27 07:27:30;;;;;;;17.45;7.18;;;;;;;6.61;81.91;101944.47;5080165;28;20069;-83
2023/04/27 07:29:56;;;;;;;12.17;5.93;;;;;;;6.74;80.43;101938.63;5096742;28;20116;-83
2023/04/27 07:32:24;;;;;;;11.45;5.55;;;;;;;6.83;79.44;101934.94;5064185;28;20126;-81
2023/04/27 07:34:51;;;;;;;9.52;4.90;;;;;;;6.94;78.28;101936.50;5096830;28;20387;-82
2023/04/27 07:37:16;;;;;;;11.20;5.30;;;;;;;7.02;78.10;101941.91;5080352;28;20089;-82
2023/04/27 07:39:41;;;;;;;14.30;5.40;;;;;;;7.15;78.26;101940.63;5079709;28;20471;-82
2023/04/27 07:42:07;;;;;;;11.93;5.40;;;;;;;7.26;76.67;101937.56;5080198;28;20040;-82
2023/04/27 07:44:33;;;;;;;13.45;5.05;;;;;;;7.35;76.36;101938.44;5096774;28;20032;-82
2023/04/27 07:46:59;;;;;;;12.68;5.07;;;;;;;7.42;76.25;101933.22;5079972;28;20032;-82
2023/04/27 07:49:25;;;;;;;15.27;5.25;;;;;;;7.50;75.20;101944.00;5079539;28;20027;-82
2023/04/27 07:51:50;;;;;;;8.57;4.97;;;;;;;7.54;74.47;101940.81;5097123;28;20448;-82
2023/04/27 07:54:16;;;;;;;14.70;5.72;;;;;;;7.58;73.31;101930.50;5097181;28;20273;-85
2023/04/27 07:56:42;;;;;;;9.60;5.20;;;;;;;7.64;73.29;101937.09;5063025;28;20032;-82
2023/04/27 07:59:07;;;;;;;11.82;5.60;;;;;;;7.70;72.74;101937.25;5096312;28;20123;-82
2023/04/27 08:01:33;;;;;;;8.33;4.37;;;;;;;7.72;71.14;101935.25;5079802;28;20042;-81
2023/04/27 08:03:58;;;;;;;9.13;4.70;;;;;;;7.78;72.02;101936.44;5114025;28;20472;-82
2023/04/27 08:06:23;;;;;;;10.95;5.38;;;;;;;7.85;71.54;101928.47;5115129;28;20430;-82
2023/04/27 08:08:49;;;;;;;12.13;4.68;;;;;;;7.94;70.91;101938.25;5062626;28;20045;-83
2023/04/27 08:11:14;;;;;;;8.37;4.63;;;;;;;8.02;70.43;101926.59;5062700;28;20062;-83
2023/04/27 08:13:40;;;;;;;8.63;4.43;;;;;;;8.11;69.78;101930.97;5113897;28;20052;-82
2023/04/27 08:16:06;;;;;;;10.98;4.60;;;;;;;8.20;70.13;101940.72;5095804;28;20110;-82
2023/04/27 08:18:31;;;;;;;7.63;4.32;;;;;;;8.33;69.63;101937.50;5114331;28;20055;-82
2023/04/27 08:20:57;;;;;;;9.07;4.15;;;;;;;8.39;69.06;101939.50;5079282;28;20467;-83
2023/04/27 08:23:26;;;;;;;7.87;4.50;;;;;;;8.50;67.66;101937.47;5079213;28;20484;-82
2023/04/27 08:25:51;;;;;;;6.80;3.83;;;;;;;8.62;67.43;101932.50;5079129;28;20032;-82
2023/04/27 08:28:17;;;;;;;9.03;4.50;;;;;;;8.71;66.73;101929.59;5113932;28;20031;-82
2023/04/27 08:30:42;;;;;;;8.53;4.33;;;;;;;8.84;66.28;101914.63;5095953;28;20043;-83
2023/04/27 08:33:10;;;;;;;6.75;3.53;;;;;;;8.93;65.41;101905.44;5095855;28;20088;-81
2023/04/27 08:35:36;;;;;;;5.93;3.72;;;;;;;9.07;65.64;101899.28;5114059;28;20030;-83
2023/04/27 08:38:01;;;;;;;11.13;4.20;;;;;;;9.14;63.18;101896.69;5096081;28;20114;-83
2023/04/27 08:40:27;;;;;;;12.37;4.90;;;;;;;9.21;63.16;101900.38;5078821;28;20115;-83
2023/04/27 08:43:00;;;;;;;6.43;3.60;;;;;;;9.29;62.09;101908.41;5062178;28;20034;-82
2023/04/27 08:45:26;;;;;;;6.50;3.38;;;;;;;9.35;60.79;101901.44;5078980;28;20088;-83
2023/04/27 08:47:52;;;;;;;5.35;2.85;;;;;;;9.45;59.80;101906.63;5079708;28;20404;-83
2023/04/27 08:50:18;;;;;;;6.73;3.43;;;;;;;9.59;60.45;101902.25;5095310;28;20066;-83
2023/04/27 08:52:47;;;;;;;7.93;3.63;;;;;;;9.73;60.32;101898.75;5078353;28;20063;-83
2023/04/27 08:55:13;;;;;;;7.60;3.28;;;;;;;9.88;59.95;101908.78;5096456;28;20532;-83
2023/04/27 08:57:38;;;;;;;8.30;3.73;;;;;;;10.00;59.29;101904.56;5113879;28;20035;-82
2023/04/27 09:00:14;;;;;;;9.57;3.10;;;;;;;10.08;57.49;101896.34;5095383;28;20463;-82
2023/04/27 09:02:46;;;;;;;5.68;3.13;;;;;;;10.23;56.49;101899.06;5064977;28;20038;-83
2023/04/27 09:05:20;;;;;;;8.70;3.28;;;;;;;10.39;56.48;101910.78;5081251;28;20085;-82
2023/04/27 09:07:59;;;;;;;7.38;3.30;;;;;;;10.61;56.60;101903.53;5117997;28;20055;-82
2023/04/27 09:10:25;;;;;;;6.50;2.60;;;;;;;10.76;53.58;101898.91;5117710;28;20023;-82
2023/04/27 09:12:55;;;;;;;6.33;2.83;;;;;;;10.87;54.33;101897.59;5099518;28;20047;-82
2023/04/27 09:15:21;;;;;;;7.97;3.00;;;;;;;11.11;54.27;101896.38;5099767;28;20118;-82
2023/04/27 09:17:57;;;;;;;7.00;3.30;;;;;;;11.40;52.22;101897.28;5083081;28;20363;-82
2023/04/27 09:20:25;;;;;;;7.65;3.22;;;;;;;11.58;50.88;101896.81;5099630;28;20035;-82
2023/04/27 09:22:56;;;;;;;6.43;3.10;;;;;;;11.79;50.53;101898.66;5082821;28;20421;-82
2023/04/27 09:25:25;;;;;;;8.55;3.10;;;;;;;11.96;48.76;101887.50;5083085;28;20023;-82
2023/04/27 09:27:50;;;;;;;6.00;2.90;;;;;;;12.16;49.24;101890.34;5082647;28;20032;-83
2023/04/27 09:30:16;;;;;;;5.60;2.97;;;;;;;12.35;47.54;101884.16;5065850;28;20150;-82
2023/04/27 09:32:51;;;;;;;4.67;2.60;;;;;;;12.54;47.90;101889.91;5082621;28;20446;-82
2023/04/27 09:35:23;;;;;;;7.03;2.63;;;;;;;12.70;46.34;101884.09;5099059;28;20472;-82
2023/04/27 09:37:51;;;;;;;5.63;2.70;;;;;;;12.93;43.77;101883.75;5099038;28;20532;-82
2023/04/27 09:40:18;;;;;;;6.68;3.03;;;;;;;13.27;44.08;101884.66;5098593;28;20032;-82
2023/04/27 09:42:45;;;;;;;6.47;2.73;;;;;;;13.57;42.83;101880.69;5098695;28;20088;-82
2023/04/27 09:45:10;;;;;;;5.00;2.65;;;;;;;13.70;42.70;101880.72;5099049;28;20463;-82
2023/04/27 09:47:37;;;;;;;6.50;2.80;;;;;;;13.89;42.83;101878.97;5081861;28;20036;-82
2023/04/27 09:50:04;;;;;;;4.10;2.67;;;;;;;13.97;42.02;101877.94;5099155;28;20055;-82
2023/04/27 09:52:31;;;;;;;4.53;2.75;;;;;;;14.18;40.63;101877.66;5116875;28;20122;-82
2023/04/27 09:54:57;;;;;;;5.60;2.30;;;;;;;14.41;39.94;101867.31;5098503;28;20024;-82
2023/04/27 09:57:36;;;;;;;4.18;2.28;;;;;;;14.78;40.88;101862.97;5098969;28;20126;-82
2023/04/27 10:00:18;;;;;;;7.30;2.92;;;;;;;14.98;40.06;101856.53;5116986;28;20032;-82
2023/04/27 10:03:12;;;;;;;4.95;2.78;;;;;;;15.22;40.59;101863.94;5098850;28;20028;-82
2023/04/27 10:06:11;;;;;;;5.13;2.90;;;;;;;15.51;41.37;101858.84;5098801;28;20035;-82
2023/04/27 10:08:37;;;;;;;5.83;3.00;;;;;;;15.88;37.25;101853.47;5117292;28;20435;-82
2023/04/27 10:11:17;;;;;;;8.15;2.95;;;;;;;15.92;38.99;101851.97;5116738;28;20043;-82
2023/04/27 10:13:54;;;;;;;8.00;3.40;;;;;;;16.07;38.42;101857.06;5097997;28;20060;-82
2023/04/27 10:16:20;;;;;;;5.97;2.85;;;;;;;16.17;36.25;101851.06;5115785;28;20042;-82
2023/04/27 10:18:55;;;;;;;5.38;3.13;;;;;;;16.29;37.44;101856.63;5098271;28;20130;-82
2023/04/27 10:21:21;;;;;;;5.87;3.20;;;;;;;16.53;34.48;101865.78;5116653;28;20058;-82
2023/04/27 10:23:51;;;;;;;4.90;3.00;;;;;;;16.67;34.63;101871.94;5098127;28;20028;-82
2023/04/27 10:26:27;;;;;;;7.47;3.28;;;;;;;16.90;36.01;101865.75;5098010;28;20043;-82
2023/04/27 10:29:06;;;;;;;7.82;3.35;;;;;;;17.12;34.45;101865.22;5064589;28;20218;-82
2023/04/27 10:31:32;;;;;;;8.65;3.30;;;;;;;17.32;34.33;101862.19;5116372;28;20028;-83
2023/04/27 10:34:14;;;;;;;7.77;3.30;;;;;;;17.40;34.42;101867.28;5081004;28;20034;-83
2023/04/27 10:36:41;;;;;;;5.03;3.00;;;;;;;17.67;33.25;101867.69;5116779;28;20471;-82
2023/04/27 10:39:40;;;;;;;6.90;3.20;;;;;;;17.80;35.38;101861.09;5081007;28;20036;-82
2023/04/27 10:42:06;;;;;;;10.32;4.22;;;;;;;17.96;32.62;101859.56;5097595;28;20062;-82
2023/04/27 10:44:33;;;;;;;7.47;3.50;;;;;;;17.81;32.50;101848.25;5097995;28;20077;-82
2023/04/27 10:47:01;;;;;;;8.87;3.67;;;;;;;18.08;31.54;101840.34;5116081;28;20116;-82
2023/04/27 10:49:28;;;;;;;7.68;3.72;;;;;;;18.27;30.85;101838.28;5097652;28;20055;-82
2023/04/27 10:51:56;;;;;;;5.38;4.00;;;;;;;18.49;31.27;101846.69;5097783;28;20030;-82
2023/04/27 10:54:26;;;;;;;6.47;3.88;;;;;;;18.85;30.38;101839.13;5097958;28;20381;-84
2023/04/27 10:56:51;;;;;;;5.40;3.80;;;;;;;19.27;29.10;101832.47;5115407;28;20093;-82
2023/04/27 10:59:17;;;;;;;6.00;3.70;;;;;;;19.20;28.62;101826.28;5081251;28;20063;-82
2023/04/27 11:01:48;;;;;;;6.90;3.27;;;;;;;19.39;29.79;101819.44;5097485;28;20486;-82
2023/04/27 11:04:14;;;;;;;8.88;3.67;;;;;;;19.44;28.67;101822.28;5097654;28;20031;-82
2023/04/27 11:06:45;;;;;;;6.47;3.70;;;;;;;19.63;28.38;101820.09;5080339;28;20027;-82
2023/04/27 11:09:11;;;;;;;6.97;4.07;;;;;;;19.91;27.69;101803.69;5097098;28;20498;-82
2023/04/27 11:11:36;;;;;;;8.87;3.90;;;;;;;20.15;27.38;101812.53;5080437;28;20024;-83
2023/04/27 11:14:02;;;;;;;6.30;3.63;;;;;;;20.95;27.52;101809.25;5115107;28;20366;-82
2023/04/27 11:16:30;;;;;;;5.53;4.17;;;;;;;21.67;24.92;101799.66;5097257;28;20042;-82
2023/04/27 11:18:55;;;;;;;5.53;3.92;;;;;;;23.17;23.82;101800.09;5097541;28;20063;-82
2023/04/27 11:21:21;;;;;;;6.50;3.77;;;;;;;24.54;22.41;101802.72;5080113;28;20490;-82
2023/04/27 11:23:47;;;;;;;4.68;3.80;;;;;;;26.32;21.25;101796.84;5114736;28;20080;-82